Altamont, Kansas
Current Conditions -  °F | °C
As of 4:52 PM on Saturday 25 Oct 2014 (Local Time) from KPPF Reporting Station
Clear Clear  
Wind Chill: 29°   Ceiling: Unl
Heat Index: 30°   Visibility: 10mi
Dew Point: 18°   Wind: 6mph
Humidity: 51%   Direction: 180°S
Pressure: 30.02"   Gusts: NA
Location:  37.19°N, 95.3°W
Report Text: KPPF 252152Z AUTO 18005KT 10SM CLR 29/18 A3002 RMK AO2 SLP158 T02890178
Loading
Personal Weather Stations






























Interactive Weather Map
Tropical Storm Tracking
New forecast layout! Learn more

10-Day Weather Forecast

Advertisements
Track Severe Weather on mobile